createdAt,value
2018-06-09T00:01:43.402Z,23.53
2018-06-09T00:04:20.545Z,28.00
2018-06-09T00:06:51.964Z,24.20
2018-06-09T00:09:22.341Z,24.57
2018-06-09T00:11:52.759Z,25.60
2018-06-09T00:14:24.452Z,26.83
2018-06-09T00:16:55.036Z,24.90
2018-06-09T00:19:25.429Z,25.77
2018-06-09T00:21:55.801Z,29.47
2018-06-09T00:24:26.166Z,29.30
2018-06-09T00:26:56.580Z,28.83
2018-06-09T00:29:26.956Z,25.90
2018-06-09T00:31:57.407Z,27.60
2018-06-09T00:34:27.799Z,27.80
2018-06-09T00:36:58.188Z,28.03
2018-06-09T00:39:51.272Z,29.37
2018-06-09T00:42:21.640Z,28.23
2018-06-09T00:44:52.011Z,28.47
2018-06-09T00:47:22.397Z,29.37
2018-06-09T00:49:52.762Z,32.13
2018-06-09T00:52:23.452Z,29.33
2018-06-09T00:54:54.626Z,27.87
2018-06-09T00:57:44.752Z,29.13
2018-06-09T01:00:15.144Z,28.90
2018-06-09T01:03:05.074Z,28.63
2018-06-09T01:05:35.469Z,32.43
2018-06-09T01:08:26.231Z,30.27
2018-06-09T01:10:56.627Z,31.97
2018-06-09T01:13:26.995Z,32.07
2018-06-09T01:15:58.335Z,30.43
2018-06-09T01:18:28.717Z,30.33
2018-06-09T01:20:59.095Z,29.70
2018-06-09T01:23:29.529Z,32.03
2018-06-09T01:26:01.961Z,32.73
2018-06-09T01:28:33.095Z,30.20
2018-06-09T01:31:03.467Z,34.23
2018-06-09T01:33:33.924Z,29.43
2018-06-09T01:36:04.321Z,27.90
2018-06-09T01:38:34.702Z,30.90
2018-06-09T01:41:05.125Z,29.20
2018-06-09T01:43:35.523Z,30.60
2018-06-09T01:46:09.984Z,29.07
2018-06-09T01:48:41.835Z,28.67
2018-06-09T01:51:12.201Z,33.60
2018-06-09T01:53:43.115Z,34.33
2018-06-09T01:56:14.269Z,30.77
2018-06-09T01:58:45.408Z,35.90
2018-06-09T02:01:16.540Z,31.60
2018-06-09T02:03:47.656Z,32.37
2018-06-09T02:06:18.028Z,33.90
2018-06-09T02:08:49.161Z,34.47
2018-06-09T02:11:20.324Z,35.20
2018-06-09T02:13:50.702Z,32.07
2018-06-09T02:16:21.020Z,34.40
2018-06-09T02:18:51.419Z,34.37
2018-06-09T02:21:22.826Z,32.90
2018-06-09T02:23:53.978Z,34.43
2018-06-09T02:26:24.382Z,36.07
2018-06-09T02:28:54.761Z,32.20
2018-06-09T02:31:25.137Z,34.37
2018-06-09T02:33:55.547Z,34.67
2018-06-09T02:36:26.609Z,32.47
2018-06-09T02:38:56.987Z,27.17
2018-06-09T02:41:27.383Z,30.60
2018-06-09T02:43:58.525Z,31.73
2018-06-09T02:46:29.667Z,30.87
2018-06-09T02:49:00.774Z,31.57
2018-06-09T02:51:31.138Z,27.73
2018-06-09T02:54:02.284Z,30.90
2018-06-09T02:56:32.628Z,32.90
2018-06-09T02:59:03.480Z,31.10
2018-06-09T03:01:34.495Z,31.30
2018-06-09T03:04:05.671Z,30.47
2018-06-09T03:06:36.402Z,33.67
2018-06-09T03:09:06.779Z,29.17
2018-06-09T03:11:37.169Z,31.83
2018-06-09T03:14:26.907Z,31.43
2018-06-09T03:16:57.303Z,34.53
2018-06-09T03:19:27.686Z,31.47
2018-06-09T03:21:58.054Z,32.27
2018-06-09T03:24:28.449Z,33.70
2018-06-09T03:26:58.821Z,34.67
2018-06-09T03:29:29.202Z,34.47
2018-06-09T03:32:03.715Z,30.70
2018-06-09T03:34:34.459Z,34.10
2018-06-09T03:37:05.798Z,33.73
2018-06-09T03:39:36.203Z,31.30
2018-06-09T03:42:07.339Z,31.67
2018-06-09T03:44:38.567Z,31.13
2018-06-09T03:47:08.972Z,29.07
2018-06-09T03:49:39.292Z,33.00
2018-06-09T03:52:10.878Z,30.47
2018-06-09T03:54:41.285Z,27.70
2018-06-09T03:57:11.661Z,33.47
2018-06-09T03:59:42.031Z,30.30
2018-06-09T04:02:15.222Z,37.47
2018-06-09T04:04:46.096Z,35.13
2018-06-09T04:07:17.242Z,29.00
2018-06-09T04:12:36.182Z,35.03
2018-06-09T04:15:07.614Z,31.80
2018-06-09T04:17:37.983Z,32.53
2018-06-09T04:20:10.398Z,39.33
2018-06-09T04:22:40.740Z,39.83
2018-06-09T04:25:13.105Z,30.80
2018-06-09T04:27:43.487Z,32.40
2018-06-09T04:30:13.886Z,31.27
2018-06-09T04:32:44.279Z,28.60
2018-06-09T04:35:14.658Z,31.03
2018-06-09T04:37:45.072Z,34.90
2018-06-09T04:40:15.443Z,30.07
2018-06-09T04:42:45.813Z,36.67
2018-06-09T04:45:36.652Z,30.60
2018-06-09T04:48:07.017Z,31.93
2018-06-09T04:50:37.394Z,32.70
2018-06-09T04:53:08.805Z,34.57
2018-06-09T04:55:39.178Z,34.47
2018-06-09T04:58:09.546Z,32.07
2018-06-09T05:00:39.940Z,38.57
2018-06-09T05:03:12.136Z,31.13
2018-06-09T05:05:43.263Z,35.00
2018-06-09T05:08:14.414Z,32.13
2018-06-09T05:10:46.430Z,33.93
2018-06-09T05:13:17.289Z,32.73
2018-06-09T05:15:47.674Z,39.37
2018-06-09T05:18:21.117Z,38.80
2018-06-09T05:20:51.428Z,39.10
2018-06-09T05:23:21.828Z,38.57
2018-06-09T05:25:52.204Z,37.30
2018-06-09T05:28:23.635Z,30.27
2018-06-09T05:30:54.075Z,35.10
2018-06-09T05:33:24.435Z,35.10
2018-06-09T05:35:54.811Z,35.10
2018-06-09T05:38:25.228Z,39.27
2018-06-09T05:40:56.151Z,37.53
2018-06-09T05:43:33.864Z,35.63
2018-06-09T05:46:04.236Z,44.57
2018-06-09T05:48:34.606Z,35.47
2018-06-09T05:51:24.377Z,36.93
2018-06-09T05:54:00.483Z,39.57
2018-06-09T05:56:29.992Z,35.63
2018-06-09T05:59:00.556Z,33.50
2018-06-09T06:01:31.408Z,44.10
2018-06-09T06:04:01.849Z,34.93
2018-06-09T06:06:32.935Z,38.87
2018-06-09T06:09:03.921Z,36.27
2018-06-09T06:11:35.007Z,40.30
2018-06-09T06:14:05.654Z,39.43
2018-06-09T06:16:36.030Z,37.53
2018-06-09T06:19:25.026Z,40.13
2018-06-09T06:21:55.391Z,41.73
2018-06-09T06:24:26.798Z,40.23
2018-06-09T06:26:57.402Z,42.90
2018-06-09T06:29:28.139Z,40.47
2018-06-09T06:32:18.214Z,41.97
2018-06-09T06:34:48.592Z,41.40
2018-06-09T06:37:19.161Z,41.73
2018-06-09T06:39:49.742Z,40.63
2018-06-09T06:42:20.307Z,38.07
2018-06-09T06:44:50.795Z,41.73
2018-06-09T06:47:21.185Z,41.43
2018-06-09T06:49:51.562Z,44.80
2018-06-09T06:52:21.947Z,43.43
2018-06-09T06:54:52.345Z,41.93
2018-06-09T06:57:22.731Z,39.50
2018-06-09T06:59:53.053Z,49.63
2018-06-09T07:02:23.650Z,43.07
2018-06-09T07:04:54.018Z,40.23
2018-06-09T07:07:24.400Z,41.33
2018-06-09T07:09:57.353Z,43.23
2018-06-09T07:12:28.804Z,40.30
2018-06-09T07:14:59.450Z,41.57
2018-06-09T07:17:29.859Z,41.73
2018-06-09T07:20:00.547Z,44.90
2018-06-09T07:22:32.961Z,41.67
2018-06-09T07:25:03.305Z,38.40
2018-06-09T07:27:33.675Z,40.63
2018-06-09T07:30:25.484Z,39.97
2018-06-09T07:32:56.177Z,36.47
2018-06-09T07:35:26.915Z,41.70
2018-06-09T07:37:57.297Z,57.08
2018-06-09T07:40:27.818Z,33.40
2018-06-09T07:42:58.137Z,39.80
2018-06-09T07:45:28.528Z,44.20
2018-06-09T07:47:59.210Z,45.10
2018-06-09T07:50:29.666Z,39.93
2018-06-09T07:53:00.690Z,36.50
2018-06-09T07:55:31.053Z,40.47
2018-06-09T07:58:01.808Z,40.30
2018-06-09T08:00:32.168Z,36.63
2018-06-09T08:03:02.554Z,41.47
2018-06-09T08:05:33.700Z,43.80
2018-06-09T08:08:04.541Z,42.93
2018-06-09T08:10:34.953Z,39.67
2018-06-09T08:13:05.333Z,41.40
2018-06-09T08:15:35.731Z,38.63
2018-06-09T08:18:06.105Z,38.83
2018-06-09T08:20:36.487Z,38.20
2018-06-09T08:23:06.893Z,39.63
2018-06-09T08:28:30.893Z,39.43
2018-06-09T08:31:01.472Z,42.73
2018-06-09T08:33:31.858Z,41.43
2018-06-09T08:36:04.888Z,44.10
2018-06-09T08:38:35.238Z,41.50
2018-06-09T08:41:05.574Z,44.90
2018-06-09T08:43:36.751Z,46.60
2018-06-09T08:46:07.074Z,41.70
2018-06-09T08:48:37.390Z,42.50
2018-06-09T08:51:07.794Z,45.23
2018-06-09T08:53:38.116Z,41.33
2018-06-09T08:56:08.505Z,42.07
2018-06-09T08:58:38.903Z,45.63
2018-06-09T09:01:09.298Z,43.27
2018-06-09T09:03:39.679Z,41.13
2018-06-09T09:06:12.129Z,46.20
2018-06-09T09:08:44.770Z,40.03
2018-06-09T09:11:15.171Z,44.37
2018-06-09T09:13:45.570Z,54.50
2018-06-09T09:16:15.952Z,45.83
2018-06-09T09:18:48.965Z,45.27
2018-06-09T09:21:20.131Z,45.00
2018-06-09T09:23:50.503Z,40.90
2018-06-09T09:26:23.590Z,39.53
2018-06-09T09:28:53.974Z,48.43
2018-06-09T09:31:24.358Z,45.27
2018-06-09T09:33:54.732Z,42.97
2018-06-09T09:36:25.141Z,44.93
2018-06-09T09:38:56.161Z,46.17
2018-06-09T09:41:27.298Z,41.30
2018-06-09T09:43:58.449Z,51.70
2018-06-09T09:46:29.580Z,45.43
2018-06-09T09:48:59.941Z,45.13
2018-06-09T09:51:31.355Z,37.87
2018-06-09T09:54:07.415Z,42.77
2018-06-09T09:56:37.814Z,45.30
2018-06-09T09:59:08.229Z,38.03
2018-06-09T10:01:42.686Z,40.07
2018-06-09T10:04:13.342Z,40.43
2018-06-09T10:06:44.481Z,36.20
2018-06-09T10:09:15.619Z,32.33
2018-06-09T10:11:50.374Z,40.67
2018-06-09T10:14:20.702Z,35.87
2018-06-09T10:16:51.084Z,32.83
2018-06-09T10:19:24.369Z,31.67
2018-06-09T10:21:54.687Z,37.80
2018-06-09T10:24:25.062Z,36.07
2018-06-09T10:26:58.985Z,34.27
2018-06-09T10:29:29.377Z,36.53
2018-06-09T10:31:59.815Z,36.07
2018-06-09T10:34:30.229Z,36.10
2018-06-09T10:37:00.702Z,29.80
2018-06-09T10:39:33.993Z,36.17
2018-06-09T10:42:07.747Z,41.20
2018-06-09T10:44:38.078Z,36.03
2018-06-09T10:47:08.451Z,35.53
2018-06-09T10:49:39.060Z,36.63
2018-06-09T10:52:09.440Z,32.77
2018-06-09T10:54:41.086Z,34.37
2018-06-09T10:57:11.859Z,32.10
2018-06-09T10:59:43.018Z,32.43
2018-06-09T11:02:14.453Z,31.20
2018-06-09T11:04:45.864Z,34.00
2018-06-09T11:07:16.237Z,32.23
2018-06-09T11:09:46.610Z,32.97
2018-06-09T11:12:18.041Z,29.27
2018-06-09T11:14:48.406Z,34.50
2018-06-09T11:17:26.126Z,31.03
2018-06-09T11:19:56.496Z,27.27
2018-06-09T11:22:29.660Z,32.10
2018-06-09T11:25:00.072Z,25.33
2018-06-09T11:30:15.120Z,30.50
2018-06-09T11:32:45.495Z,26.07
2018-06-09T11:35:15.810Z,29.27
2018-06-09T11:37:48.846Z,28.33
2018-06-09T11:40:19.222Z,26.20
2018-06-09T11:42:49.586Z,25.83
2018-06-09T11:45:19.983Z,29.37
2018-06-09T11:47:50.994Z,31.33
2018-06-09T11:50:21.315Z,26.27
2018-06-09T11:52:54.237Z,31.07
2018-06-09T11:55:24.622Z,23.57
2018-06-09T11:57:56.013Z,27.00
2018-06-09T12:00:26.386Z,30.00
2018-06-09T12:02:57.117Z,29.50
2018-06-09T12:05:27.511Z,25.07
2018-06-09T12:07:57.903Z,23.73
2018-06-09T12:10:29.559Z,21.17
2018-06-09T12:13:01.916Z,24.23
2018-06-09T12:15:39.020Z,25.57
2018-06-09T12:18:09.400Z,27.43
2018-06-09T12:20:39.763Z,25.73
2018-06-09T12:23:14.863Z,29.27
2018-06-09T12:25:53.259Z,28.67
2018-06-09T12:28:24.421Z,27.60
2018-06-09T12:30:54.792Z,27.77
2018-06-09T12:33:26.181Z,29.37
2018-06-09T12:35:56.587Z,25.27
2018-06-09T12:38:26.959Z,24.57
2018-06-09T12:40:57.343Z,23.47
2018-06-09T12:43:27.731Z,26.43
2018-06-09T12:46:06.060Z,28.00
2018-06-09T12:49:00.809Z,24.43
2018-06-09T12:51:39.624Z,27.40
2018-06-09T12:54:10.793Z,29.30
2018-06-09T12:56:41.182Z,27.50
2018-06-09T12:59:12.322Z,32.93
2018-06-09T13:01:42.733Z,27.57
2018-06-09T13:04:13.109Z,28.77
2018-06-09T13:06:43.482Z,29.30
2018-06-09T13:09:13.882Z,26.53
2018-06-09T13:11:46.306Z,25.20
2018-06-09T13:14:16.681Z,27.73
2018-06-09T13:16:47.069Z,28.03
2018-06-09T13:19:24.200Z,27.47
2018-06-09T13:21:54.770Z,27.07
2018-06-09T13:24:25.150Z,30.23
2018-06-09T13:26:56.740Z,29.37
2018-06-09T13:29:29.888Z,27.37
2018-06-09T13:32:00.280Z,35.20
2018-06-09T13:34:31.413Z,26.53
2018-06-09T13:37:07.513Z,23.13
2018-06-09T13:39:37.886Z,24.20
2018-06-09T13:42:08.248Z,24.80
2018-06-09T13:44:40.230Z,24.47
2018-06-09T13:47:10.595Z,23.03
2018-06-09T13:49:41.171Z,26.20
2018-06-09T13:52:11.567Z,22.33
2018-06-09T13:54:41.951Z,25.57
2018-06-09T13:57:12.265Z,26.87
2018-06-09T13:59:42.671Z,20.30
2018-06-09T14:02:13.803Z,20.37
2018-06-09T14:04:44.170Z,23.13
2018-06-09T14:07:19.802Z,22.67
2018-06-09T14:09:50.166Z,20.37
2018-06-09T14:12:27.440Z,21.30
2018-06-09T14:14:58.841Z,20.50
2018-06-09T14:17:29.225Z,17.77
2018-06-09T14:19:59.665Z,24.48
2018-06-09T14:22:30.036Z,20.43
2018-06-09T14:25:01.183Z,22.40
2018-06-09T14:27:32.351Z,22.83
2018-06-09T14:30:02.760Z,23.83
2018-06-09T14:32:33.134Z,23.40
2018-06-09T14:35:06.086Z,26.58
2018-06-09T14:37:39.155Z,19.97
2018-06-09T14:40:12.681Z,20.07
2018-06-09T14:42:48.297Z,20.73
2018-06-09T14:45:22.462Z,19.53
2018-06-09T14:48:03.160Z,22.83
2018-06-09T14:50:38.137Z,18.37
2018-06-09T14:53:08.507Z,22.50
2018-06-09T14:55:39.340Z,20.20
2018-06-09T14:58:11.700Z,19.37
2018-06-09T15:00:42.162Z,21.37
2018-06-09T15:03:12.721Z,18.17
2018-06-09T15:05:42.963Z,17.20
2018-06-09T15:08:13.547Z,19.53
2018-06-09T15:13:34.614Z,17.50
2018-06-09T15:16:19.112Z,21.43
2018-06-09T15:18:49.486Z,20.83
2018-06-09T15:21:19.871Z,18.77
2018-06-09T15:23:50.269Z,21.30
2018-06-09T15:26:29.621Z,20.97
2018-06-09T15:29:02.643Z,21.63
2018-06-09T15:31:36.026Z,20.30
2018-06-09T15:34:06.429Z,22.03
2018-06-09T15:36:38.850Z,20.90
2018-06-09T15:39:09.172Z,21.80
2018-06-09T15:41:42.231Z,23.07
2018-06-09T15:44:15.290Z,20.07
2018-06-09T15:46:45.617Z,24.33
2018-06-09T15:49:18.643Z,24.23
2018-06-09T15:51:49.214Z,23.07
2018-06-09T15:54:19.612Z,23.20
2018-06-09T15:56:50.010Z,23.13
2018-06-09T15:59:21.402Z,24.07
2018-06-09T16:01:51.782Z,23.43
2018-06-09T16:04:24.245Z,22.53
2018-06-09T16:06:54.624Z,21.50
2018-06-09T16:09:25.076Z,23.07
2018-06-09T16:11:55.544Z,22.07
2018-06-09T16:14:29.046Z,21.27
2018-06-09T16:17:03.810Z,22.90
2018-06-09T16:19:36.584Z,23.10
2018-06-09T16:22:14.406Z,22.53
2018-06-09T16:24:45.677Z,23.53
2018-06-09T16:50:19.544Z,24.70
2018-06-09T17:01:58.894Z,20.63
2018-06-09T17:13:44.025Z,22.50
2018-06-09T17:22:30.328Z,17.73
2018-06-09T17:25:04.227Z,22.50
2018-06-09T17:37:18.985Z,22.57
2018-06-09T17:39:53.709Z,20.97
2018-06-09T17:42:45.459Z,19.47
2018-06-09T17:45:15.829Z,21.77
2018-06-09T17:47:46.195Z,21.00
2018-06-09T17:53:28.256Z,22.43
2018-06-09T17:56:25.011Z,20.23
2018-06-09T17:58:55.388Z,22.60
2018-06-09T18:01:28.447Z,19.83
2018-06-09T18:03:58.842Z,21.07
2018-06-09T18:06:29.981Z,20.97
2018-06-09T18:09:03.682Z,22.37
2018-06-09T18:11:34.073Z,19.77
2018-06-09T18:14:11.377Z,21.90
2018-06-09T18:16:42.530Z,19.53
2018-06-09T18:19:15.916Z,20.37
2018-06-09T18:21:46.290Z,21.67
2018-06-09T18:24:16.803Z,18.43
2018-06-09T18:26:47.214Z,18.17
2018-06-09T18:29:17.655Z,20.23
2018-06-09T18:31:48.039Z,20.50
2018-06-09T18:34:19.402Z,19.40
2018-06-09T18:36:49.772Z,19.20
2018-06-09T18:39:20.233Z,17.90
2018-06-09T18:41:57.264Z,20.70
2018-06-09T18:44:28.418Z,18.83
2018-06-09T18:47:05.605Z,19.90
2018-06-09T18:49:42.504Z,19.97
2018-06-09T18:52:20.435Z,18.57
2018-06-09T18:54:50.885Z,18.93
2018-06-09T18:57:21.254Z,19.20
2018-06-09T18:59:51.617Z,19.40
2018-06-09T19:02:27.614Z,18.67
2018-06-09T19:05:01.590Z,20.10
2018-06-09T19:07:31.951Z,19.37
2018-06-09T19:10:02.424Z,20.87
2018-06-09T19:12:32.793Z,21.03
2018-06-09T19:15:05.651Z,19.97
2018-06-09T19:17:37.067Z,21.73
2018-06-09T19:22:57.406Z,21.07
2018-06-09T19:25:27.778Z,20.87
2018-06-09T19:28:00.631Z,21.40
2018-06-09T19:30:33.697Z,21.10
2018-06-09T19:33:06.117Z,19.33
2018-06-09T19:35:37.137Z,22.77
2018-06-09T19:38:07.526Z,21.20
2018-06-09T19:40:43.577Z,24.00
2018-06-09T19:43:13.924Z,23.50
2018-06-09T19:45:44.295Z,32.73
2018-06-09T19:48:14.663Z,24.30
2018-06-09T19:50:45.414Z,26.10
2018-06-09T19:53:17.874Z,23.60
2018-06-09T19:55:48.254Z,28.20
2018-06-09T19:58:18.652Z,26.37
2018-06-09T20:00:51.063Z,25.93
2018-06-09T20:03:21.459Z,24.10
2018-06-09T20:05:59.126Z,28.73
2018-06-09T20:08:29.555Z,23.20
2018-06-09T20:11:05.365Z,22.03
2018-06-09T20:13:35.741Z,23.00
2018-06-09T20:16:09.793Z,21.17
2018-06-09T20:18:41.429Z,19.97
2018-06-09T20:21:11.813Z,16.30
2018-06-09T20:23:43.157Z,20.00
2018-06-09T20:26:17.163Z,18.00
2018-06-09T20:28:48.822Z,16.57
2018-06-09T20:31:21.308Z,18.70
2018-06-09T20:33:57.787Z,15.80
2018-06-09T20:36:28.161Z,15.67
2018-06-09T20:38:58.471Z,15.97
2018-06-09T20:41:50.251Z,14.13
2018-06-09T20:44:23.666Z,11.87
2018-06-09T20:46:54.043Z,12.13
2018-06-09T20:49:24.433Z,12.43
2018-06-09T20:52:00.883Z,11.93
2018-06-09T20:54:31.878Z,13.00
2018-06-09T20:57:03.587Z,13.00
2018-06-09T20:59:36.722Z,11.20
2018-06-09T21:02:07.096Z,10.50
2018-06-09T21:04:39.915Z,9.20
2018-06-09T21:07:29.410Z,7.77
2018-06-09T21:10:00.065Z,7.43
2018-06-09T21:12:31.205Z,9.27
2018-06-09T21:15:07.151Z,8.57
2018-06-09T21:17:37.522Z,8.17
2018-06-09T21:20:10.622Z,8.70
2018-06-09T21:22:43.719Z,7.97
2018-06-09T21:25:14.094Z,8.53
2018-06-09T21:27:44.504Z,7.23
2018-06-09T21:30:15.174Z,8.03
2018-06-09T21:32:49.039Z,10.97
2018-06-09T21:35:55.277Z,8.20
2018-06-09T21:41:15.958Z,6.13
2018-06-09T21:43:49.021Z,7.33
2018-06-09T21:46:19.415Z,7.00
2018-06-09T21:48:49.824Z,8.47
2018-06-09T21:51:22.014Z,8.63
2018-06-09T21:53:56.019Z,8.10
2018-06-09T21:56:27.109Z,10.10
2018-06-09T21:58:57.423Z,9.70
2018-06-09T22:01:27.994Z,8.97
2018-06-09T22:03:58.359Z,8.90
2018-06-09T22:06:34.886Z,11.60
2018-06-09T22:09:10.486Z,9.13
2018-06-09T22:12:00.230Z,8.87
2018-06-09T22:14:32.195Z,8.37
2018-06-09T22:17:06.443Z,8.67
2018-06-09T22:19:57.577Z,9.43
2018-06-09T22:22:27.915Z,10.50
2018-06-09T22:24:58.324Z,10.43
2018-06-09T22:27:29.127Z,9.50
2018-06-09T22:30:01.123Z,9.53
2018-06-09T22:32:33.529Z,9.60
2018-06-09T22:35:05.931Z,8.93
2018-06-09T22:37:36.249Z,10.23
2018-06-09T22:40:06.610Z,8.80
2018-06-09T22:42:39.046Z,10.10
2018-06-09T22:45:09.411Z,10.53
2018-06-09T22:48:00.953Z,13.07
2018-06-09T22:50:31.322Z,14.20
2018-06-09T22:53:01.690Z,15.03
2018-06-09T22:55:35.596Z,16.30
2018-06-09T22:58:05.981Z,17.00
2018-06-09T23:00:37.061Z,19.23
2018-06-09T23:03:08.138Z,24.20
2018-06-09T23:05:38.546Z,26.60
2018-06-09T23:08:08.923Z,27.90
2018-06-09T23:10:39.318Z,23.57
2018-06-09T23:13:11.482Z,29.67
2018-06-09T23:15:41.855Z,31.27
2018-06-09T23:18:12.240Z,30.57
2018-06-09T23:20:42.618Z,30.33
2018-06-09T23:23:12.994Z,32.27
2018-06-09T23:25:44.137Z,29.50
2018-06-09T23:28:14.508Z,34.33
2018-06-09T23:30:46.958Z,31.10
2018-06-09T23:33:17.822Z,35.87
2018-06-09T23:35:48.203Z,36.03
2018-06-09T23:38:21.612Z,34.73
2018-06-09T23:40:52.782Z,37.63
2018-06-09T23:43:23.152Z,37.90
2018-06-09T23:45:58.654Z,37.57
2018-06-09T23:48:29.023Z,37.27
2018-06-09T23:51:08.042Z,37.90
2018-06-09T23:53:38.406Z,37.43
2018-06-09T23:56:08.792Z,34.90
2018-06-09T23:58:41.312Z,39.83
